Mesa, Arizona
Current Conditions -  °F | °C
As of 12:47 PM on Sunday 23 Nov 2014 (Local Time) from KFFZ Reporting Station
Few Clouds Few Clouds  
Wind Chill: 64°   Ceiling: Unl
Heat Index: 64°   Visibility: 30mi
Dew Point: 30°   Wind: 6mph
Humidity: 28%   Direction: 250°WSW
Pressure: 30.03"   Gusts: NA
Location:  33.42°N, 111.83°W
Report Text: KFFZ 231947Z 25005KT 30SM FEW200 18/M01 A3003
Loading
Personal Weather Stations






























Interactive Weather Map New forecast layout! Learn more

10-Day Weather Forecast

Advertisements
Track Severe Weather on mobile